San Carlos, CA (94070)

11:35 PM PST on March 05, 2015 (GMT -0800)
Beverly Terrace (Highlands Park Area) | Change Station
CLOSE
Current Station
Personal Weather Station
Location: San Carlos, CA
Elevation: 282 ft
Nearby Weather Stations

Elev 282 ft 37.50 °N, 122.27 °W | Updated 13 minutes ago

Clear
Clear
57.2 °F
Feels Like 57.2 °F
N
0.0
Wind Variable Wind from South

Today
High -- | Low -- °F
--% Chance of Precip.
Yesterday
High -- | Low -- °F
Precip. -- in
6:34 AM 6:06 PM
Full, 100% visible
Pressure 30.31 in
Visibility 10.0 miles
Clouds Clear
Dew Point 37 °F
Humidity 46%
Rainfall in
Snow Depth Not available.
UV 0 out of 12
Pollen 8.70 out of 12
Air Quality Not available.
Flu Activity Not available.
METAR KSQL 060710Z AUTO 00000KT 10SM CLR 13/04 A3031 RMK AO2

More Conditions Fewer Conditions

Pressure 30.31 in
Visibility 10.0 miles
Clouds Clear
Dew Point 37 °F
Humidity 46%
Rainfall in
Snow Depth Not available.
UV 0 out of 12
Pollen 8.70 out of 12
Air Quality Not available.
Flu Activity Not available.
METAR KSQL 060710Z AUTO 00000KT 10SM CLR 13/04 A3031 RMK AO2

More Conditions Fewer Conditions

10-Day Weather Forecast

Almanac

Astronomy

Mar. 05, 2015 Rise Set
Actual Time
Civil Twilight
Nautical Twilight
Astronomical Twilight
Moon
Length of Visible Light
Length of Day
Tomorrow will be .
, % of the Moon is Illuminated

Today's Extremes

State Highs State Lows

Community

WunderPhotos

Upload Photos

1,803,199 photos uploaded!

WunderBlogs® & News

Nearby

Air Quality

  Air Quality AQ Index Pollutant
Not available.

Snow Depth

Station Depth Elevation

Earthquake Activity

City Distance Mag. Time & Date
Minimum magnitude displayed is 2.5.

Coastal Water Temperatures

Place Temperature

Nearby Weather Stations